Time;durP1;ratioP1;P1;durP2;ratioP2;P2;SDS_P1;SDS_P2;PMS_P1;PMS_P2;Temp;Humidity;BMP_temperature;BMP_pressure;BME280_temperature;BME280_humidity;BME280_pressure;Samples;Min_cycle;Max_cycle;Signal;HPM_P1;HPM_P2
2023/07/28 00:00:43;;;;;;;1.80;1.70;;;18.40;99.90;;;;;;5029002;28;20758;-64
2023/07/28 00:03:09;;;;;;;4.27;2.20;;;18.50;99.90;;;;;;5028970;28;20203;-63
2023/07/28 00:05:36;;;;;;;2.00;1.70;;;18.50;99.90;;;;;;5028881;28;20914;-63
2023/07/28 00:08:02;;;;;;;4.17;2.67;;;18.50;99.90;;;;;;5029056;28;20584;-63
2023/07/28 00:10:27;;;;;;;5.23;2.37;;;18.50;99.90;;;;;;5028717;28;20451;-64
2023/07/28 00:12:53;;;;;;;3.60;2.40;;;18.30;99.90;;;;;;5028698;28;20226;-64
2023/07/28 00:15:19;;;;;;;4.53;2.30;;;18.20;99.90;;;;;;5028727;28;20275;-64
2023/07/28 00:17:44;;;;;;;2.20;2.00;;;18.00;99.90;;;;;;5028551;28;20191;-63
2023/07/28 00:20:11;;;;;;;4.50;2.77;;;17.90;99.90;;;;;;5028838;28;20282;-63
2023/07/28 00:22:36;;;;;;;4.50;2.70;;;17.80;99.90;;;;;;5028649;28;20245;-63
2023/07/28 00:25:02;;;;;;;2.83;2.50;;;17.70;99.90;;;;;;5028692;28;20928;-63
2023/07/28 00:27:28;;;;;;;3.50;2.13;;;17.70;99.90;;;;;;5028725;28;20290;-64
2023/07/28 00:29:53;;;;;;;3.40;2.70;;;17.60;99.90;;;;;;5028445;28;20853;-64
2023/07/28 00:32:19;;;;;;;3.10;2.30;;;17.50;99.90;;;;;;5028597;28;20181;-63
2023/07/28 00:34:45;;;;;;;4.20;2.30;;;17.50;99.90;;;;;;5028443;28;20266;-63
2023/07/28 00:37:10;;;;;;;2.50;2.07;;;17.40;99.90;;;;;;5028950;28;20268;-63
2023/07/28 00:39:36;;;;;;;1.93;1.83;;;17.40;99.90;;;;;;5027736;28;20658;-63
2023/07/28 00:42:01;;;;;;;6.60;2.60;;;17.40;99.90;;;;;;5028395;28;20191;-63
2023/07/28 00:44:27;;;;;;;3.10;2.67;;;17.40;99.90;;;;;;5028178;28;20195;-63
2023/07/28 00:46:53;;;;;;;2.57;2.37;;;17.20;99.90;;;;;;5028291;28;20541;-64
2023/07/28 00:49:18;;;;;;;6.20;2.33;;;17.20;99.90;;;;;;5028133;28;20287;-63
2023/07/28 00:51:44;;;;;;;3.23;2.13;;;17.20;99.90;;;;;;5028268;28;20211;-64
2023/07/28 00:54:11;;;;;;;2.57;2.10;;;17.20;99.90;;;;;;5028243;28;20517;-64
2023/07/28 00:56:37;;;;;;;3.00;1.90;;;17.20;99.90;;;;;;5028240;28;20792;-63
2023/07/28 00:59:03;;;;;;;2.03;1.83;;;17.20;99.90;;;;;;5028539;28;20431;-64
2023/07/28 01:01:29;;;;;;;2.40;1.93;;;17.30;99.90;;;;;;5028366;28;20284;-64
2023/07/28 01:03:54;;;;;;;5.70;2.20;;;17.30;99.90;;;;;;5028217;28;20223;-63
2023/07/28 01:06:47;;;;;;;2.67;1.80;;;17.20;99.90;;;;;;5028201;28;20228;-63
2023/07/28 01:09:18;;;;;;;2.53;2.10;;;17.30;99.90;;;;;;5028295;28;20195;-63
2023/07/28 01:11:54;;;;;;;3.27;1.97;;;17.30;99.90;;;;;;5028322;28;20439;-64
2023/07/28 01:14:20;;;;;;;4.07;2.33;;;17.20;99.90;;;;;;5028152;28;20477;-63
2023/07/28 01:16:45;;;;;;;3.30;2.33;;;17.10;99.90;;;;;;5028353;28;20432;-63
2023/07/28 01:19:12;;;;;;;2.50;2.30;;;17.20;99.90;;;;;;5028494;28;20616;-63
2023/07/28 01:21:43;;;;;;;3.93;2.30;;;17.00;99.90;;;;;;5028590;28;20203;-63
2023/07/28 01:24:15;;;;;;;3.30;2.23;;;17.00;99.90;;;;;;5028810;28;20432;-63
2023/07/28 01:26:41;;;;;;;2.03;1.70;;;17.10;99.90;;;;;;5028831;28;20855;-63
2023/07/28 01:29:07;;;;;;;4.43;2.30;;;17.40;99.90;;;;;;5028479;28;20407;-63
2023/07/28 01:31:33;;;;;;;3.80;2.10;;;17.50;99.90;;;;;;5028264;28;20230;-63
2023/07/28 01:33:58;;;;;;;3.47;2.07;;;17.60;99.90;;;;;;5027925;28;20466;-63
2023/07/28 01:36:24;;;;;;;1.73;1.63;;;17.70;99.90;;;;;;5027999;28;20430;-63
2023/07/28 01:38:50;;;;;;;2.43;1.83;;;17.70;99.90;;;;;;5028019;28;20191;-64
2023/07/28 01:41:15;;;;;;;3.17;2.47;;;17.80;99.90;;;;;;5027792;28;20308;-64
2023/07/28 01:43:41;;;;;;;2.30;2.10;;;17.80;99.90;;;;;;5027890;28;20557;-63
2023/07/28 01:46:07;;;;;;;2.13;1.90;;;17.90;99.90;;;;;;5027796;28;20206;-64
2023/07/28 01:48:33;;;;;;;2.30;2.10;;;17.70;99.90;;;;;;5027757;28;20447;-63
2023/07/28 01:50:59;;;;;;;3.17;2.27;;;17.60;99.90;;;;;;5028976;28;20958;-64
2023/07/28 01:53:24;;;;;;;2.03;1.83;;;17.60;99.90;;;;;;5031535;28;20277;-64
2023/07/28 01:55:50;;;;;;;3.00;2.13;;;17.50;99.90;;;;;;5031363;28;20193;-63
2023/07/28 01:58:15;;;;;;;3.00;2.07;;;17.50;99.90;;;;;;5029914;28;20272;-64
2023/07/28 02:00:41;;;;;;;2.47;2.00;;;17.40;99.90;;;;;;5031170;28;20234;-63
2023/07/28 02:03:07;;;;;;;4.90;2.00;;;17.40;99.90;;;;;;5031254;28;20193;-63
2023/07/28 02:05:32;;;;;;;2.23;2.03;;;17.50;99.90;;;;;;5031153;28;20194;-64
2023/07/28 02:07:58;;;;;;;2.67;2.07;;;17.50;99.90;;;;;;5031726;28;20189;-64
2023/07/28 02:10:24;;;;;;;3.90;1.90;;;17.60;99.90;;;;;;5031122;28;20231;-64
2023/07/28 02:12:51;;;;;;;5.00;2.17;;;17.70;99.90;;;;;;5031049;28;20247;-64
2023/07/28 02:15:17;;;;;;;3.53;1.93;;;17.80;99.90;;;;;;5031367;28;20194;-64
2023/07/28 02:17:42;;;;;;;2.70;2.50;;;17.90;99.90;;;;;;5031098;28;20426;-64
2023/07/28 02:20:12;;;;;;;3.83;2.60;;;17.90;99.90;;;;;;5030898;28;20208;-64
2023/07/28 02:22:42;;;;;;;5.40;2.30;;;18.00;99.90;;;;;;5031032;28;20242;-63
2023/07/28 02:25:08;;;;;;;2.37;2.17;;;18.10;99.90;;;;;;5031144;28;20455;-64
2023/07/28 02:27:34;;;;;;;2.97;1.60;;;18.10;99.90;;;;;;5030821;28;20960;-64
2023/07/28 02:29:59;;;;;;;4.07;2.20;;;18.20;99.90;;;;;;5030669;28;20562;-64
2023/07/28 02:32:26;;;;;;;3.27;2.30;;;18.20;99.90;;;;;;5030637;28;20191;-64
2023/07/28 02:34:52;;;;;;;2.90;2.10;;;18.20;99.90;;;;;;5030691;28;20218;-64
2023/07/28 02:37:17;;;;;;;1.80;1.70;;;18.20;99.90;;;;;;5030613;28;20420;-64
2023/07/28 02:39:43;;;;;;;2.10;1.90;;;18.30;99.90;;;;;;5030512;28;20606;-63
2023/07/28 02:42:09;;;;;;;3.60;2.37;;;18.30;99.90;;;;;;5030878;28;20184;-64
2023/07/28 02:44:34;;;;;;;2.13;1.90;;;18.30;99.90;;;;;;5030553;28;20431;-64
2023/07/28 02:47:00;;;;;;;2.70;1.60;;;18.40;99.90;;;;;;5030483;28;20190;-64
2023/07/28 02:49:25;;;;;;;3.23;1.70;;;18.40;99.90;;;;;;5030260;28;20716;-64
2023/07/28 02:51:51;;;;;;;2.93;2.00;;;18.40;99.90;;;;;;5030498;28;20191;-64
2023/07/28 02:54:17;;;;;;;2.80;1.80;;;18.50;99.90;;;;;;5030248;28;20227;-64
2023/07/28 02:56:42;;;;;;;2.20;2.00;;;18.60;99.90;;;;;;5030455;28;20180;-64
2023/07/28 02:59:08;;;;;;;1.97;1.87;;;18.70;99.90;;;;;;5030294;28;20184;-64
2023/07/28 03:01:33;;;;;;;2.10;1.83;;;18.70;99.90;;;;;;5030589;28;20269;-64
2023/07/28 03:04:01;;;;;;;2.60;1.87;;;18.60;99.90;;;;;;5029868;28;20242;-64
2023/07/28 03:06:26;;;;;;;4.70;1.77;;;18.70;99.90;;;;;;5030590;28;20199;-64
2023/07/28 03:08:52;;;;;;;1.90;1.80;;;18.70;99.90;;;;;;5030764;28;20796;-64
2023/07/28 03:11:18;;;;;;;3.03;1.90;;;18.60;99.90;;;;;;5030865;28;20212;-64
2023/07/28 03:13:43;;;;;;;1.80;1.70;;;18.70;99.90;;;;;;5030503;28;20224;-64
2023/07/28 03:16:09;;;;;;;2.17;1.97;;;18.80;99.90;;;;;;5030656;28;20195;-64
2023/07/28 03:18:35;;;;;;;9.80;2.17;;;18.80;99.90;;;;;;5030756;28;20188;-63
2023/07/28 03:21:01;;;;;;;4.00;1.70;;;18.90;99.90;;;;;;5030554;28;20453;-64
2023/07/28 03:23:26;;;;;;;3.10;2.40;;;18.90;99.90;;;;;;5030362;28;20850;-64
2023/07/28 03:25:52;;;;;;;4.40;2.50;;;18.90;99.90;;;;;;5030172;28;20232;-63
2023/07/28 03:28:18;;;;;;;2.87;2.07;;;18.90;99.90;;;;;;5030157;28;20192;-64
2023/07/28 03:30:47;;;;;;;6.53;2.70;;;18.90;99.90;;;;;;5029837;28;20446;-64
2023/07/28 03:33:13;;;;;;;1.90;1.70;;;18.90;99.90;;;;;;5029706;28;20462;-64
2023/07/28 03:35:38;;;;;;;2.00;1.90;;;18.90;99.90;;;;;;5030146;28;20433;-64
2023/07/28 03:38:04;;;;;;;2.33;1.97;;;18.90;99.90;;;;;;5029650;28;20275;-64
2023/07/28 03:40:29;;;;;;;3.73;1.93;;;18.90;99.90;;;;;;5029549;28;20744;-64
2023/07/28 03:42:55;;;;;;;5.60;2.27;;;19.00;99.90;;;;;;5029613;28;20210;-64
2023/07/28 03:45:21;;;;;;;2.87;2.27;;;19.00;99.90;;;;;;5029604;28;20652;-63
2023/07/28 03:47:46;;;;;;;3.57;2.30;;;19.00;99.90;;;;;;5029444;28;20203;-64
2023/07/28 03:50:12;;;;;;;3.53;2.40;;;19.00;99.90;;;;;;5029172;28;20232;-65
2023/07/28 03:52:37;;;;;;;2.97;2.10;;;19.00;99.90;;;;;;5029446;28;20951;-64
2023/07/28 03:55:04;;;;;;;3.80;2.70;;;19.00;99.90;;;;;;5029338;28;20211;-64
2023/07/28 03:57:29;;;;;;;2.83;1.90;;;19.00;99.90;;;;;;5027841;28;20189;-64
2023/07/28 03:59:55;;;;;;;3.60;2.70;;;19.00;99.90;;;;;;5029122;28;20812;-64
2023/07/28 04:02:21;;;;;;;2.50;2.30;;;19.00;99.90;;;;;;5029311;28;20188;-64
2023/07/28 04:04:46;;;;;;;2.57;2.23;;;19.00;99.90;;;;;;5029255;28;20194;-64
2023/07/28 04:07:12;;;;;;;3.20;2.67;;;19.00;99.90;;;;;;5029176;28;20660;-64
2023/07/28 04:09:37;;;;;;;2.63;2.43;;;19.00;99.90;;;;;;5028974;28;20192;-64
2023/07/28 04:12:03;;;;;;;2.43;2.23;;;19.00;99.90;;;;;;5029156;28;20206;-64
2023/07/28 04:14:29;;;;;;;2.67;2.47;;;19.10;99.90;;;;;;5027993;28;20601;-64
2023/07/28 04:16:54;;;;;;;6.40;2.50;;;19.10;99.90;;;;;;5028906;28;20516;-64
2023/07/28 04:19:20;;;;;;;2.80;2.10;;;19.10;99.90;;;;;;5028918;28;20840;-64
2023/07/28 04:21:45;;;;;;;2.43;2.20;;;19.10;99.90;;;;;;5028943;28;20208;-64
2023/07/28 04:24:11;;;;;;;2.13;1.93;;;19.00;99.90;;;;;;5028883;28;20220;-64
2023/07/28 04:26:37;;;;;;;4.20;2.37;;;19.10;99.90;;;;;;5028580;28;20197;-63
2023/07/28 04:29:03;;;;;;;2.70;2.50;;;19.10;99.90;;;;;;5027634;28;20431;-65
2023/07/28 04:31:29;;;;;;;2.20;1.90;;;19.10;99.90;;;;;;5027638;28;20457;-64
2023/07/28 04:33:54;;;;;;;3.70;2.43;;;19.20;99.90;;;;;;5027565;28;20682;-64
2023/07/28 04:36:20;;;;;;;2.37;2.10;;;19.20;99.90;;;;;;5027085;28;20849;-64
2023/07/28 04:38:46;;;;;;;7.93;3.10;;;19.20;99.90;;;;;;5027415;28;20180;-64
2023/07/28 04:41:11;;;;;;;2.40;2.20;;;19.20;99.90;;;;;;5027287;28;20705;-64
2023/07/28 04:43:37;;;;;;;2.97;1.97;;;19.20;99.90;;;;;;5027276;28;20200;-64
2023/07/28 04:46:02;;;;;;;3.80;2.20;;;19.10;99.90;;;;;;5027351;28;20193;-64
2023/07/28 04:48:28;;;;;;;2.70;2.27;;;19.20;99.90;;;;;;5027226;28;20190;-64
2023/07/28 04:50:54;;;;;;;2.87;2.67;;;19.20;99.90;;;;;;5027005;28;20717;-64
2023/07/28 04:53:19;;;;;;;2.23;2.03;;;19.30;99.90;;;;;;5026837;28;20306;-64
2023/07/28 04:55:45;;;;;;;5.10;1.80;;;19.40;99.90;;;;;;5027264;28;20526;-64
2023/07/28 04:58:11;;;;;;;2.20;2.00;;;19.40;99.90;;;;;;5027515;28;20286;-64
2023/07/28 05:00:36;;;;;;;3.67;2.50;;;19.40;99.90;;;;;;5027599;28;20977;-64
2023/07/28 05:03:02;;;;;;;2.83;2.10;;;19.50;99.90;;;;;;5027442;28;20188;-64
2023/07/28 05:05:29;;;;;;;5.03;2.50;;;19.50;99.90;;;;;;5027466;28;20203;-64
2023/07/28 05:07:55;;;;;;;4.30;2.33;;;19.50;99.90;;;;;;5027303;28;20189;-64
2023/07/28 05:10:20;;;;;;;7.43;2.57;;;19.50;99.90;;;;;;5027270;28;20535;-65
2023/07/28 05:12:46;;;;;;;4.17;2.50;;;19.60;99.90;;;;;;5027300;28;20195;-64
2023/07/28 05:15:14;;;;;;;3.10;2.50;;;19.60;99.90;;;;;;5027137;28;20192;-64
2023/07/28 05:17:40;;;;;;;3.40;2.30;;;19.60;99.90;;;;;;5027147;28;20227;-64
2023/07/28 05:20:06;;;;;;;3.60;2.60;;;19.60;99.90;;;;;;5027099;28;20505;-63
2023/07/28 05:22:32;;;;;;;2.93;2.30;;;19.60;99.90;;;;;;5027409;28;20184;-64
2023/07/28 05:24:57;;;;;;;2.63;2.40;;;19.70;99.90;;;;;;5027456;28;20423;-62
2023/07/28 05:27:23;;;;;;;3.60;2.50;;;19.70;99.90;;;;;;5031305;28;20610;-64
2023/07/28 05:29:48;;;;;;;3.83;2.03;;;19.70;99.90;;;;;;5030844;28;20216;-64
2023/07/28 05:32:14;;;;;;;3.43;2.80;;;19.70;99.90;;;;;;5030876;28;20554;-65
2023/07/28 05:34:43;;;;;;;3.57;2.70;;;19.70;99.90;;;;;;5030816;28;20262;-62
2023/07/28 05:37:09;;;;;;;2.90;2.67;;;19.60;99.90;;;;;;5030451;28;20672;-65
2023/07/28 05:39:35;;;;;;;3.83;2.40;;;19.60;99.90;;;;;;5030408;28;20427;-64
2023/07/28 05:42:01;;;;;;;3.93;2.73;;;19.60;99.90;;;;;;5030686;28;20441;-62
2023/07/28 05:44:27;;;;;;;2.10;1.90;;;19.60;99.90;;;;;;5030643;28;20415;-62
2023/07/28 05:46:53;;;;;;;2.80;2.60;;;19.60;99.90;;;;;;5030657;28;20187;-65
2023/07/28 05:49:18;;;;;;;3.57;2.80;;;19.70;99.90;;;;;;5030320;28;20541;-64
2023/07/28 05:51:44;;;;;;;4.17;2.40;;;19.50;99.90;;;;;;5030269;28;20215;-62
2023/07/28 05:54:09;;;;;;;5.93;3.60;;;19.30;99.90;;;;;;5028753;28;20381;-64
2023/07/28 05:56:35;;;;;;;3.60;2.90;;;19.10;99.90;;;;;;5030167;28;20196;-62
2023/07/28 05:59:01;;;;;;;5.23;3.20;;;19.00;99.90;;;;;;5029959;28;20209;-64
2023/07/28 06:01:27;;;;;;;4.77;3.00;;;18.90;99.90;;;;;;5030023;28;20207;-62
2023/07/28 06:03:55;;;;;;;4.60;2.63;;;18.80;99.90;;;;;;5030082;28;20192;-62
2023/07/28 06:06:21;;;;;;;3.77;2.83;;;18.70;99.90;;;;;;5029934;28;20423;-62
2023/07/28 06:08:47;;;;;;;4.17;2.80;;;18.60;99.90;;;;;;5030021;28;20427;-62
2023/07/28 06:11:13;;;;;;;2.80;2.60;;;18.60;99.90;;;;;;5029853;28;20812;-65
2023/07/28 06:13:38;;;;;;;4.20;3.17;;;18.60;99.90;;;;;;5029863;28;20223;-62
2023/07/28 06:16:04;;;;;;;4.10;3.70;;;18.70;99.90;;;;;;5029932;28;20755;-64
2023/07/28 06:18:29;;;;;;;5.73;2.93;;;18.80;99.90;;;;;;5029759;28;20226;-63
2023/07/28 06:20:55;;;;;;;3.80;2.87;;;18.90;99.90;;;;;;5029783;28;20208;-64
2023/07/28 06:23:21;;;;;;;3.20;2.30;;;19.00;99.90;;;;;;5029843;28;20199;-64
2023/07/28 06:25:46;;;;;;;8.53;2.60;;;19.10;99.90;;;;;;5029674;28;20204;-64
2023/07/28 06:28:12;;;;;;;8.20;2.93;;;19.20;99.90;;;;;;5029719;28;20189;-64
2023/07/28 06:30:39;;;;;;;4.50;2.53;;;19.10;99.90;;;;;;5029541;28;20212;-64
2023/07/28 06:33:08;;;;;;;3.80;2.80;;;19.30;99.90;;;;;;5029471;28;20470;-64
2023/07/28 06:35:33;;;;;;;3.20;2.60;;;19.30;99.90;;;;;;5029659;28;20987;-64
2023/07/28 06:38:01;;;;;;;4.50;2.80;;;19.40;99.90;;;;;;5028438;28;20506;-64
2023/07/28 06:40:26;;;;;;;4.90;2.77;;;19.40;99.90;;;;;;5029626;28;20208;-64
2023/07/28 06:42:52;;;;;;;3.03;2.63;;;19.50;99.90;;;;;;5029386;28;20431;-64
2023/07/28 06:45:17;;;;;;;2.73;2.53;;;19.40;99.90;;;;;;5029788;28;20215;-64
2023/07/28 06:47:43;;;;;;;6.37;3.07;;;19.40;99.90;;;;;;5029629;28;20188;-64
2023/07/28 06:50:11;;;;;;;5.13;3.17;;;19.40;99.90;;;;;;5029980;28;20273;-64
2023/07/28 06:52:37;;;;;;;4.77;2.93;;;19.40;99.90;;;;;;5029700;28;20431;-64
2023/07/28 06:55:03;;;;;;;4.47;2.67;;;19.40;99.90;;;;;;5029588;28;20475;-64
2023/07/28 06:57:30;;;;;;;5.33;3.17;;;19.60;99.90;;;;;;5029852;28;20423;-64
2023/07/28 06:59:56;;;;;;;3.70;2.90;;;19.60;99.90;;;;;;5029661;28;20475;-63
2023/07/28 07:02:21;;;;;;;5.23;3.27;;;19.60;99.90;;;;;;5029733;28;20471;-64
2023/07/28 07:04:47;;;;;;;3.83;3.00;;;19.40;99.90;;;;;;5029796;28;20431;-64
2023/07/28 07:07:13;;;;;;;3.83;2.90;;;19.40;99.90;;;;;;5029650;28;20225;-63
2023/07/28 07:09:38;;;;;;;4.07;3.10;;;19.30;99.90;;;;;;5029166;28;20275;-63
2023/07/28 07:12:05;;;;;;;5.50;2.90;;;19.10;99.90;;;;;;5029001;28;20188;-64
2023/07/28 07:14:31;;;;;;;5.30;3.50;;;19.20;99.90;;;;;;5028739;28;20212;-64
2023/07/28 07:16:56;;;;;;;3.90;2.83;;;19.20;99.90;;;;;;5028943;28;20426;-64
2023/07/28 07:19:22;;;;;;;4.67;3.20;;;19.10;99.90;;;;;;5028647;28;20666;-64
2023/07/28 07:21:49;;;;;;;3.70;2.37;;;19.10;99.90;;;;;;5028912;28;20240;-64
2023/07/28 07:24:15;;;;;;;3.70;2.90;;;19.20;99.90;;;;;;5028775;28;20621;-64
2023/07/28 07:26:40;;;;;;;3.87;3.10;;;19.20;99.90;;;;;;5029068;28;20423;-64
2023/07/28 07:29:08;;;;;;;3.70;3.40;;;19.30;99.90;;;;;;5028918;28;20805;-64
2023/07/28 07:31:34;;;;;;;6.70;2.83;;;19.40;99.90;;;;;;5028885;28;20457;-64
2023/07/28 07:33:59;;;;;;;4.10;2.90;;;19.50;99.90;;;;;;5029059;28;21052;-64
2023/07/28 07:36:25;;;;;;;12.10;3.10;;;19.70;99.90;;;;;;5028797;28;20181;-64
2023/07/28 07:38:51;;;;;;;8.73;3.20;;;19.80;99.90;;;;;;5028794;28;20423;-64
2023/07/28 07:41:19;;;;;;;4.60;3.20;;;19.80;99.90;;;;;;5028634;28;20246;-65
2023/07/28 07:43:46;;;;;;;5.10;3.17;;;19.80;99.90;;;;;;5028883;28;20213;-64
2023/07/28 07:46:12;;;;;;;3.77;2.90;;;19.90;99.90;;;;;;5029063;28;20510;-63
2023/07/28 07:48:38;;;;;;;10.80;2.90;;;20.00;99.90;;;;;;5028592;28;20446;-62
2023/07/28 07:51:03;;;;;;;3.00;2.70;;;20.10;99.90;;;;;;5028765;28;20474;-63
2023/07/28 07:53:29;;;;;;;3.23;2.60;;;20.30;99.90;;;;;;5028594;28;20299;-63
2023/07/28 07:55:55;;;;;;;7.00;3.70;;;20.30;99.90;;;;;;5028765;28;20990;-64
2023/07/28 07:58:20;;;;;;;4.77;3.03;;;20.40;99.90;;;;;;5028552;28;20196;-63
2023/07/28 08:00:46;;;;;;;5.50;2.70;;;20.30;99.90;;;;;;5028620;28;20228;-63
2023/07/28 08:03:12;;;;;;;7.57;2.37;;;20.30;99.90;;;;;;5028657;28;20184;-64
2023/07/28 08:05:37;;;;;;;4.50;2.70;;;20.30;99.90;;;;;;5028619;28;20196;-63
2023/07/28 08:08:05;;;;;;;2.87;2.60;;;20.30;99.90;;;;;;5028617;28;20730;-64
2023/07/28 08:10:31;;;;;;;6.40;2.73;;;20.30;99.90;;;;;;5028652;28;20212;-64
2023/07/28 08:12:56;;;;;;;5.70;2.63;;;20.20;99.90;;;;;;5028439;28;20430;-64
2023/07/28 08:15:22;;;;;;;3.70;2.97;;;20.10;99.90;;;;;;5028509;28;20937;-64
2023/07/28 08:17:48;;;;;;;3.83;2.90;;;20.10;99.90;;;;;;5028281;28;20271;-63
2023/07/28 08:20:13;;;;;;;3.40;2.40;;;20.00;99.90;;;;;;5028312;28;20208;-63
2023/07/28 08:22:39;;;;;;;5.70;2.90;;;20.10;99.90;;;;;;5028282;28;20298;-63
2023/07/28 08:25:05;;;;;;;5.00;2.57;;;20.10;99.90;;;;;;5028395;28;20200;-64
2023/07/28 08:27:31;;;;;;;5.60;2.43;;;20.10;99.90;;;;;;5028462;28;20528;-64
2023/07/28 08:29:56;;;;;;;3.20;2.67;;;20.20;99.90;;;;;;5028132;28;20454;-63
2023/07/28 08:32:22;;;;;;;3.33;2.90;;;20.40;99.90;;;;;;5027921;28;20563;-63
2023/07/28 08:34:48;;;;;;;3.30;2.70;;;20.70;99.90;;;;;;5028012;28;20315;-63
2023/07/28 08:37:13;;;;;;;6.97;2.70;;;21.10;99.90;;;;;;5027776;28;20186;-63
2023/07/28 08:39:39;;;;;;;4.27;2.90;;;21.30;99.90;;;;;;5028006;28;20187;-64
2023/07/28 08:42:05;;;;;;;3.20;2.90;;;21.50;99.90;;;;;;5028101;28;20176;-64
2023/07/28 08:44:34;;;;;;;5.80;3.47;;;21.70;99.90;;;;;;5027969;28;20227;-64
2023/07/28 08:47:02;;;;;;;4.93;2.47;;;22.00;99.90;;;;;;5027967;28;20462;-63
2023/07/28 08:49:28;;;;;;;2.50;2.30;;;22.00;99.90;;;;;;5027830;28;20462;-62
2023/07/28 08:52:00;;;;;;;3.30;3.00;;;22.10;99.90;;;;;;5027517;28;20435;-63
2023/07/28 08:54:26;;;;;;;3.40;2.70;;;22.20;99.90;;;;;;5027594;28;21052;-63
2023/07/28 08:56:52;;;;;;;7.43;2.73;;;22.30;99.90;;;;;;5027803;28;20415;-63
2023/07/28 08:59:26;;;;;;;4.17;3.00;;;22.30;99.90;;;;;;5027673;28;20790;-63
2023/07/28 09:01:54;;;;;;;3.33;2.70;;;22.40;99.90;;;;;;5033883;28;20525;-63
2023/07/28 09:04:20;;;;;;;4.33;2.60;;;22.30;99.90;;;;;;5034364;28;20448;-63
2023/07/28 09:06:47;;;;;;;2.60;2.30;;;22.40;99.90;;;;;;5034170;28;20415;-63
2023/07/28 09:09:18;;;;;;;4.97;2.67;;;22.50;99.90;;;;;;5033899;28;20411;-64
2023/07/28 09:11:51;;;;;;;3.40;2.90;;;22.60;99.90;;;;;;5034486;28;20459;-64
2023/07/28 09:14:19;;;;;;;3.23;2.80;;;22.90;99.90;;;;;;5034168;28;20491;-63
2023/07/28 09:16:45;;;;;;;6.47;2.90;;;23.30;99.90;;;;;;5034157;28;20490;-63
2023/07/28 09:19:11;;;;;;;8.87;2.80;;;23.50;99.90;;;;;;5034316;28;20416;-63
2023/07/28 09:21:39;;;;;;;4.30;2.97;;;23.60;99.90;;;;;;5034036;28;20439;-63
2023/07/28 09:24:09;;;;;;;3.70;2.67;;;23.60;99.90;;;;;;5034275;28;20533;-64
2023/07/28 09:26:42;;;;;;;7.43;3.07;;;24.00;99.90;;;;;;5034146;28;20428;-63
2023/07/28 09:29:15;;;;;;;2.70;2.50;;;24.30;99.90;;;;;;5034133;28;20836;-63
2023/07/28 09:31:42;;;;;;;5.80;2.40;;;24.60;99.90;;;;;;5033910;28;20454;-64
2023/07/28 09:34:09;;;;;;;3.70;2.40;;;24.80;99.90;;;;;;5033800;28;20527;-63
2023/07/28 09:36:35;;;;;;;4.70;2.93;;;24.70;99.90;;;;;;5033270;28;20797;-63
2023/07/28 09:39:03;;;;;;;3.63;2.80;;;24.60;99.90;;;;;;5033676;28;20496;-64
2023/07/28 09:41:34;;;;;;;3.80;3.30;;;24.70;99.90;;;;;;5033493;28;20471;-63
2023/07/28 09:44:00;;;;;;;4.53;2.80;;;24.70;99.90;;;;;;5033646;28;20483;-64
2023/07/28 09:46:30;;;;;;;4.37;3.10;;;24.70;99.90;;;;;;5033477;28;20430;-64
2023/07/28 09:48:58;;;;;;;3.07;2.50;;;24.50;99.90;;;;;;5033292;28;20930;-63
2023/07/28 09:51:30;;;;;;;3.10;2.83;;;24.30;99.90;;;;;;5033615;28;20517;-64
2023/07/28 09:54:05;;;;;;;6.83;3.10;;;24.10;99.90;;;;;;5033494;28;20474;-64
2023/07/28 09:56:32;;;;;;;5.63;3.10;;;24.50;99.90;;;;;;5033555;28;20455;-64
2023/07/28 09:59:00;;;;;;;2.93;2.73;;;24.60;99.90;;;;;;5034179;28;20464;-64
2023/07/28 10:01:28;;;;;;;2.90;2.50;;;24.50;99.90;;;;;;5033425;28;20450;-64
2023/07/28 10:03:53;;;;;;;6.20;3.07;;;24.60;99.90;;;;;;5033397;28;20552;-64
2023/07/28 10:06:20;;;;;;;3.10;2.80;;;24.40;99.90;;;;;;5033332;28;20443;-64
2023/07/28 10:08:46;;;;;;;5.40;2.80;;;24.40;99.90;;;;;;5033268;28;20215;-63
2023/07/28 10:11:18;;;;;;;2.50;2.30;;;24.90;99.90;;;;;;5032974;28;20581;-64
2023/07/28 10:13:46;;;;;;;3.43;2.33;;;25.40;99.90;;;;;;5028529;28;20472;-63
2023/07/28 10:16:14;;;;;;;4.87;2.80;;;25.30;99.90;;;;;;5030226;28;20429;-63
2023/07/28 10:18:40;;;;;;;2.60;2.30;;;25.30;99.90;;;;;;5030105;28;20422;-63
2023/07/28 10:21:12;;;;;;;2.80;2.23;;;25.50;99.90;;;;;;5030008;28;20893;-63
2023/07/28 10:23:38;;;;;;;4.90;2.67;;;26.00;99.90;;;;;;5030370;28;20426;-65
2023/07/28 10:26:07;;;;;;;2.17;1.97;;;26.00;99.90;;;;;;5030762;28;20994;-64
2023/07/28 10:28:41;;;;;;;3.10;2.80;;;26.00;99.90;;;;;;5030703;28;21246;-64
2023/07/28 10:31:11;;;;;;;3.00;2.70;;;25.90;99.90;;;;;;5030569;28;20435;-64
2023/07/28 10:33:43;;;;;;;2.90;2.70;;;25.70;99.90;;;;;;5030437;28;20876;-64
2023/07/28 10:36:22;;;;;;;2.37;2.17;;;25.40;99.90;;;;;;5030498;28;20448;-64
2023/07/28 10:39:17;;;;;;;3.50;2.80;;;25.10;99.90;;;;;;5030217;28;20426;-64
2023/07/28 10:42:05;;;;;;;2.27;2.07;;;24.90;99.90;;;;;;5026765;28;21018;-64
2023/07/28 10:44:31;;;;;;;3.37;2.83;;;24.90;99.90;;;;;;5029659;28;20423;-63
2023/07/28 10:46:57;;;;;;;3.60;2.83;;;24.90;99.90;;;;;;5029498;28;20421;-63
2023/07/28 10:49:25;;;;;;;3.87;2.67;;;24.80;99.90;;;;;;5029621;28;20453;-63
2023/07/28 10:51:51;;;;;;;4.90;2.43;;;24.80;99.90;;;;;;5029193;28;20473;-63
2023/07/28 10:54:19;;;;;;;3.23;2.80;;;24.90;99.90;;;;;;5029237;28;20485;-63
2023/07/28 10:56:45;;;;;;;2.60;2.40;;;24.80;99.90;;;;;;5029535;28;20621;-63
2023/07/28 10:59:11;;;;;;;3.90;3.10;;;24.70;99.90;;;;;;5029288;28;20425;-63
2023/07/28 11:01:40;;;;;;;3.93;2.70;;;24.80;99.90;;;;;;5029043;28;20465;-63
2023/07/28 11:04:17;;;;;;;4.27;2.50;;;24.80;99.90;;;;;;5029321;28;20186;-63
2023/07/28 11:06:48;;;;;;;3.50;2.47;;;24.70;99.90;;;;;;5029028;28;20922;-63
2023/07/28 11:09:19;;;;;;;4.50;2.83;;;24.70;99.90;;;;;;5028928;28;21272;-63
2023/07/28 11:11:45;;;;;;;4.63;2.47;;;24.80;99.90;;;;;;5028840;28;20442;-62
2023/07/28 11:14:11;;;;;;;2.47;2.27;;;24.80;99.90;;;;;;5028720;28;20958;-63
2023/07/28 11:16:40;;;;;;;4.40;2.77;;;24.80;99.90;;;;;;5028658;28;20480;-63
2023/07/28 11:19:11;;;;;;;3.10;2.80;;;24.70;99.90;;;;;;5028506;28;20186;-63
2023/07/28 11:21:41;;;;;;;3.07;2.60;;;24.70;99.90;;;;;;5028480;28;20951;-63
2023/07/28 11:24:08;;;;;;;4.27;2.63;;;24.70;99.90;;;;;;5028240;28;20431;-63
2023/07/28 11:26:35;;;;;;;4.80;2.60;;;24.80;99.90;;;;;;5028389;28;20452;-62
2023/07/28 11:29:01;;;;;;;4.57;2.27;;;24.70;99.90;;;;;;5028287;28;20929;-63
2023/07/28 11:31:27;;;;;;;5.17;3.03;;;24.90;99.90;;;;;;5028330;28;20456;-63
2023/07/28 11:33:53;;;;;;;3.30;2.87;;;25.00;99.90;;;;;;5028192;28;20215;-63
2023/07/28 11:36:26;;;;;;;6.17;3.00;;;25.00;99.90;;;;;;5028302;28;20472;-63
2023/07/28 11:38:54;;;;;;;3.40;2.57;;;24.90;99.90;;;;;;5028412;28;20199;-64
2023/07/28 11:41:20;;;;;;;4.43;2.83;;;24.80;99.90;;;;;;5028067;28;20446;-63
2023/07/28 11:43:48;;;;;;;4.33;2.80;;;24.60;99.90;;;;;;5028195;28;20508;-63
2023/07/28 11:46:39;;;;;;;3.27;2.63;;;24.30;99.90;;;;;;5028120;28;20423;-62
2023/07/28 11:49:21;;;;;;;4.13;3.10;;;24.10;99.90;;;;;;5028052;28;20440;-63
2023/07/28 11:51:49;;;;;;;6.73;3.07;;;23.80;99.90;;;;;;5027917;28;20453;-62
2023/07/28 11:54:16;;;;;;;4.87;3.10;;;23.40;99.90;;;;;;5027982;28;20477;-62
2023/07/28 11:56:43;;;;;;;3.67;2.67;;;23.10;99.90;;;;;;5027990;28;20420;-63
2023/07/28 11:59:09;;;;;;;3.33;3.03;;;22.70;99.90;;;;;;5028015;28;20426;-62
2023/07/28 12:01:35;;;;;;;3.07;2.77;;;22.30;99.90;;;;;;5027830;28;20978;-62
2023/07/28 12:04:20;;;;;;;3.27;2.80;;;22.10;99.90;;;;;;5027919;28;20451;-62
2023/07/28 12:07:16;;;;;;;7.70;2.57;;;21.90;99.90;;;;;;5027942;28;20338;-63
2023/07/28 12:10:08;;;;;;;4.53;3.27;;;21.60;99.90;;;;;;5027729;28;20427;-62
2023/07/28 12:12:41;;;;;;;3.23;2.93;;;21.40;99.90;;;;;;5027658;28;20950;-62
2023/07/28 12:15:26;;;;;;;4.10;3.00;;;21.30;99.90;;;;;;5027477;28;20470;-63
2023/07/28 12:18:15;;;;;;;4.57;3.10;;;21.10;99.90;;;;;;5027833;28;20481;-62
2023/07/28 12:20:46;;;;;;;3.53;2.80;;;21.10;99.90;;;;;;5027670;28;20429;-62
2023/07/28 12:23:16;;;;;;;3.23;3.00;;;21.10;99.90;;;;;;5027797;28;20418;-66
2023/07/28 12:25:42;;;;;;;2.60;2.40;;;21.00;99.90;;;;;;5027841;28;20433;-68
2023/07/28 12:28:08;;;;;;;5.20;3.20;;;21.10;99.90;;;;;;5027590;28;20415;-68
2023/07/28 12:30:34;;;;;;;4.30;3.20;;;21.20;99.90;;;;;;5027326;28;20469;-68
2023/07/28 12:33:00;;;;;;;3.00;2.80;;;21.00;99.90;;;;;;5027474;28;20234;-67
2023/07/28 12:35:30;;;;;;;7.10;2.87;;;21.20;99.90;;;;;;5026621;28;20419;-67
2023/07/28 12:37:57;;;;;;;3.53;2.70;;;21.40;99.90;;;;;;5027461;28;20419;-67
2023/07/28 12:40:23;;;;;;;6.30;3.30;;;21.50;99.90;;;;;;5027552;28;20443;-67
2023/07/28 12:42:49;;;;;;;3.50;3.20;;;21.50;99.90;;;;;;5025907;28;20432;-67
2023/07/28 12:45:18;;;;;;;3.20;2.60;;;21.50;99.90;;;;;;5027420;28;20419;-67